createdAt,value
2023-02-03T00:01:44.772Z,98759.81
2023-02-03T00:04:11.189Z,98760.69
2023-02-03T00:06:37.615Z,98751.66
2023-02-03T00:09:04.176Z,98756.88
2023-02-03T00:11:30.667Z,98753.66
2023-02-03T00:14:00.528Z,98754.63
2023-02-03T00:16:27.131Z,98758.31
2023-02-03T00:18:53.707Z,98759.00
2023-02-03T00:21:20.156Z,98762.34
2023-02-03T00:23:46.668Z,98757.31
2023-02-03T00:26:13.110Z,98755.63
2023-02-03T00:28:39.657Z,98759.44
2023-02-03T00:31:08.930Z,98758.88
2023-02-03T00:33:35.359Z,98750.19
2023-02-03T00:36:01.791Z,98747.66
2023-02-03T00:38:28.208Z,98745.81
2023-02-03T00:40:54.638Z,98748.47
2023-02-03T00:43:21.068Z,98745.41
2023-02-03T00:45:47.583Z,98747.53
2023-02-03T00:48:14.284Z,98753.56
2023-02-03T00:50:40.781Z,98752.19
2023-02-03T00:53:07.319Z,98752.06
2023-02-03T00:55:33.773Z,98747.38
2023-02-03T00:58:00.288Z,98747.38
2023-02-03T01:00:27.018Z,98749.91
2023-02-03T01:02:53.712Z,98752.59
2023-02-03T01:05:20.189Z,98752.19
2023-02-03T01:07:46.628Z,98751.50
2023-02-03T01:10:13.071Z,98744.44
2023-02-03T01:12:39.490Z,98737.28
2023-02-03T01:15:05.950Z,98734.19
2023-02-03T01:17:32.446Z,98735.19
2023-02-03T01:19:58.994Z,98739.97
2023-02-03T01:22:25.505Z,98733.44
2023-02-03T01:24:52.969Z,98729.13
2023-02-03T01:27:19.434Z,98740.25
2023-02-03T01:29:45.901Z,98739.69
2023-02-03T01:32:12.388Z,98737.91
2023-02-03T01:34:38.851Z,98732.00
2023-02-03T01:37:09.279Z,98748.38
2023-02-03T01:39:35.709Z,98748.69
2023-02-03T01:44:42.509Z,98758.94
2023-02-03T01:47:09.355Z,98764.28
2023-02-03T01:49:35.858Z,98764.25
2023-02-03T01:52:02.316Z,98780.00
2023-02-03T01:54:28.754Z,98791.13
2023-02-03T01:56:55.178Z,98796.91
2023-02-03T01:59:21.657Z,98792.00
2023-02-03T02:01:57.718Z,98801.00
2023-02-03T02:04:24.177Z,98795.50
2023-02-03T02:06:50.638Z,98796.63
2023-02-03T02:09:17.095Z,98795.75
2023-02-03T02:11:43.526Z,98779.97
2023-02-03T02:14:09.926Z,98782.06
2023-02-03T02:16:36.352Z,98773.22
2023-02-03T02:19:02.828Z,98764.91
2023-02-03T02:21:29.261Z,98774.31
2023-02-03T02:23:55.653Z,98780.91
2023-02-03T02:26:22.083Z,98772.59
2023-02-03T02:28:48.551Z,98764.41
2023-02-03T02:31:15.049Z,98765.13
2023-02-03T02:33:41.514Z,98767.50
2023-02-03T02:36:08.050Z,98758.50
2023-02-03T02:38:34.509Z,98762.00
2023-02-03T02:41:00.913Z,98762.69
2023-02-03T02:43:28.266Z,98768.91
2023-02-03T02:45:54.860Z,98777.91
2023-02-03T02:48:21.340Z,98779.75
2023-02-03T02:50:47.805Z,98775.69
2023-02-03T02:53:14.431Z,98776.66
2023-02-03T02:55:40.831Z,98773.97
2023-02-03T02:58:07.311Z,98775.38
2023-02-03T03:00:33.893Z,98780.72
2023-02-03T03:03:00.377Z,98778.22
2023-02-03T03:05:26.859Z,98780.59
2023-02-03T03:07:55.581Z,98782.28
2023-02-03T03:10:22.019Z,98778.63
2023-02-03T03:12:48.426Z,98773.81
2023-02-03T03:15:14.861Z,98769.13
2023-02-03T03:17:41.259Z,98763.66
2023-02-03T03:20:07.713Z,98764.50
2023-02-03T03:22:34.180Z,98761.25
2023-02-03T03:25:00.620Z,98767.31
2023-02-03T03:27:27.087Z,98772.66
2023-02-03T03:29:53.594Z,98768.91
2023-02-03T03:32:20.072Z,98768.19
2023-02-03T03:34:46.579Z,98766.06
2023-02-03T03:37:13.040Z,98770.16
2023-02-03T03:39:39.474Z,98762.94
2023-02-03T03:42:05.931Z,98761.81
2023-02-03T03:44:32.367Z,98760.84
2023-02-03T03:46:58.811Z,98758.16
2023-02-03T03:49:25.253Z,98744.78
2023-02-03T03:51:51.762Z,98754.63
2023-02-03T03:54:18.210Z,98757.31
2023-02-03T03:56:44.647Z,98768.56
2023-02-03T03:59:12.123Z,98771.09
2023-02-03T04:01:38.721Z,98774.59
2023-02-03T04:04:05.262Z,98772.78
2023-02-03T04:06:31.740Z,98768.72
2023-02-03T04:09:01.257Z,98774.38
2023-02-03T04:11:33.161Z,98760.44
2023-02-03T04:13:59.652Z,98760.72
2023-02-03T04:16:28.800Z,98747.50
2023-02-03T04:18:55.339Z,98741.59
2023-02-03T04:21:22.032Z,98736.38
2023-02-03T04:23:48.444Z,98741.06
2023-02-03T04:26:14.895Z,98736.53
2023-02-03T04:28:41.328Z,98729.22
2023-02-03T04:31:07.839Z,98726.66
2023-02-03T04:33:34.308Z,98725.84
2023-02-03T04:36:00.774Z,98716.28
2023-02-03T04:38:27.231Z,98709.38
2023-02-03T04:40:54.700Z,98707.41
2023-02-03T04:43:21.165Z,98720.66
2023-02-03T04:45:47.694Z,98706.72
2023-02-03T04:48:15.136Z,98710.41
2023-02-03T04:50:48.846Z,98703.19
2023-02-03T04:53:16.103Z,98700.00
2023-02-03T04:55:42.688Z,98686.47
2023-02-03T04:58:12.263Z,98679.97
2023-02-03T05:00:38.824Z,98677.16
2023-02-03T05:03:11.513Z,98673.78
2023-02-03T05:05:40.629Z,98675.22
2023-02-03T05:08:07.093Z,98667.03
2023-02-03T05:10:33.521Z,98665.25
2023-02-03T05:12:59.914Z,98671.13
2023-02-03T05:15:26.278Z,98677.28
2023-02-03T05:17:52.740Z,98663.81
2023-02-03T05:20:19.235Z,98670.66
2023-02-03T05:22:45.753Z,98678.69
2023-02-03T05:25:12.281Z,98681.28
2023-02-03T05:27:38.766Z,98691.38
2023-02-03T05:30:05.152Z,98705.38
2023-02-03T05:32:31.624Z,98709.47
2023-02-03T05:34:58.135Z,98712.13
2023-02-03T05:37:24.494Z,98704.09
2023-02-03T05:39:51.094Z,98696.09
2023-02-03T05:42:17.596Z,98686.22
2023-02-03T05:44:44.005Z,98683.44
2023-02-03T05:47:10.550Z,98686.78
2023-02-03T05:49:36.999Z,98675.72
2023-02-03T05:52:03.461Z,98685.00
2023-02-03T05:54:29.935Z,98687.91
2023-02-03T05:56:56.386Z,98685.50
2023-02-03T05:59:23.043Z,98691.66
2023-02-03T06:01:49.543Z,98692.69
2023-02-03T06:04:16.004Z,98688.00
2023-02-03T06:06:42.447Z,98678.31
2023-02-03T06:09:08.919Z,98684.66
2023-02-03T06:11:35.337Z,98692.84
2023-02-03T06:14:01.772Z,98704.94
2023-02-03T06:16:28.266Z,98710.59
2023-02-03T06:18:54.804Z,98717.75
2023-02-03T06:21:21.303Z,98733.22
2023-02-03T06:23:47.732Z,98738.00
2023-02-03T06:26:14.423Z,98744.31
2023-02-03T06:31:22.328Z,98769.94
2023-02-03T06:33:48.848Z,98771.63
2023-02-03T06:36:15.245Z,98776.00
2023-02-03T06:38:41.641Z,98779.50
2023-02-03T06:41:08.061Z,98778.66
2023-02-03T06:43:34.495Z,98772.75
2023-02-03T06:46:01.052Z,98770.66
2023-02-03T06:48:27.488Z,98777.81
2023-02-03T06:50:53.921Z,98770.81
2023-02-03T06:53:20.308Z,98759.41
2023-02-03T06:55:46.681Z,98755.16
2023-02-03T06:58:13.166Z,98754.47
2023-02-03T07:00:39.631Z,98759.97
2023-02-03T07:03:06.117Z,98776.97
2023-02-03T07:05:32.760Z,98783.44
2023-02-03T07:07:59.910Z,98780.09
2023-02-03T07:10:26.684Z,98781.94
2023-02-03T07:12:53.307Z,98775.72
2023-02-03T07:15:19.740Z,98772.50
2023-02-03T07:17:47.869Z,98779.66
2023-02-03T07:20:23.612Z,98775.31
2023-02-03T07:22:50.356Z,98773.75
2023-02-03T07:25:22.912Z,98764.91
2023-02-03T07:27:49.320Z,98758.13
2023-02-03T07:30:15.892Z,98747.34
2023-02-03T07:32:52.553Z,98744.25
2023-02-03T07:38:11.232Z,98751.28
2023-02-03T07:40:37.704Z,98738.75
2023-02-03T07:43:05.146Z,98750.00
2023-02-03T07:45:31.640Z,98752.09
2023-02-03T07:47:58.069Z,98751.13
2023-02-03T07:50:24.618Z,98749.28
2023-02-03T07:52:51.113Z,98768.13
2023-02-03T07:55:17.573Z,98772.22
2023-02-03T07:57:47.012Z,98782.59
2023-02-03T08:00:13.461Z,98784.31
2023-02-03T08:02:39.887Z,98798.63
2023-02-03T08:05:06.405Z,98796.97
2023-02-03T08:07:32.917Z,98801.28
2023-02-03T08:10:00.278Z,98806.91
2023-02-03T08:12:26.719Z,98807.41
2023-02-03T08:14:53.199Z,98803.88
2023-02-03T08:17:19.701Z,98810.34
2023-02-03T08:19:46.165Z,98804.22
2023-02-03T08:22:12.793Z,98806.56
2023-02-03T08:24:39.291Z,98805.53
2023-02-03T08:27:05.710Z,98805.50
2023-02-03T08:29:32.198Z,98811.47
2023-02-03T08:32:00.084Z,98813.19
2023-02-03T08:34:26.708Z,98815.75
2023-02-03T08:39:33.555Z,98816.31
2023-02-03T08:42:00.769Z,98815.78
2023-02-03T08:44:27.275Z,98814.38
2023-02-03T08:46:53.738Z,98823.66
2023-02-03T08:49:20.338Z,98829.53
2023-02-03T08:51:47.369Z,98832.63
2023-02-03T08:54:13.814Z,98831.38
2023-02-03T08:56:41.323Z,98833.63
2023-02-03T08:59:07.818Z,98822.53
2023-02-03T09:01:41.491Z,98826.47
2023-02-03T09:04:25.271Z,98829.72
2023-02-03T09:06:58.861Z,98829.28
2023-02-03T09:09:25.328Z,98833.50
2023-02-03T09:11:52.284Z,98842.34
2023-02-03T09:14:18.719Z,98841.53
2023-02-03T09:16:47.637Z,98850.38
2023-02-03T09:19:14.088Z,98857.84
2023-02-03T09:21:44.253Z,98862.91
2023-02-03T09:24:12.231Z,98859.25
2023-02-03T09:26:38.936Z,98845.91
2023-02-03T09:29:05.310Z,98843.22
2023-02-03T09:31:31.745Z,98841.09
2023-02-03T09:33:58.186Z,98851.63
2023-02-03T09:36:24.575Z,98848.00
2023-02-03T09:38:51.030Z,98839.69
2023-02-03T09:41:25.019Z,98836.03
2023-02-03T09:43:56.847Z,98838.44
2023-02-03T09:46:24.648Z,98835.47
2023-02-03T09:48:51.125Z,98838.84
2023-02-03T09:51:17.556Z,98835.19
2023-02-03T09:53:43.970Z,98845.56
2023-02-03T09:56:10.367Z,98837.31
2023-02-03T09:58:36.848Z,98837.00
2023-02-03T10:01:03.286Z,98838.81
2023-02-03T10:03:29.715Z,98838.00
2023-02-03T10:05:56.173Z,98833.47
2023-02-03T10:08:23.643Z,98832.06
2023-02-03T10:10:50.062Z,98833.47
2023-02-03T10:13:16.501Z,98829.38
2023-02-03T10:15:43.006Z,98826.25
2023-02-03T10:18:12.948Z,98824.16
2023-02-03T10:20:39.398Z,98833.72
2023-02-03T10:23:05.797Z,98820.38
2023-02-03T10:25:32.134Z,98820.06
2023-02-03T10:27:59.009Z,98820.38
2023-02-03T10:30:25.594Z,98811.59
2023-02-03T10:32:52.066Z,98812.31
2023-02-03T10:35:18.485Z,98815.38
2023-02-03T10:37:52.099Z,98809.50
2023-02-03T10:40:18.537Z,98809.50
2023-02-03T10:42:44.956Z,98801.19
2023-02-03T10:45:31.910Z,98798.50
2023-02-03T10:47:58.371Z,98802.44
2023-02-03T10:50:24.809Z,98791.31
2023-02-03T10:52:59.178Z,98780.72
2023-02-03T10:55:25.759Z,98775.22
2023-02-03T10:57:52.090Z,98771.44
2023-02-03T11:00:22.326Z,98768.59
2023-02-03T11:02:49.635Z,98764.94
2023-02-03T11:05:16.099Z,98762.66
2023-02-03T11:07:42.727Z,98752.34
2023-02-03T11:10:13.702Z,98754.31
2023-02-03T11:12:43.114Z,98750.22
2023-02-03T11:15:10.598Z,98751.06
2023-02-03T11:17:37.045Z,98757.41
2023-02-03T11:20:03.461Z,98748.69
2023-02-03T11:22:36.189Z,98748.97
2023-02-03T11:25:03.545Z,98743.63
2023-02-03T11:27:30.405Z,98751.41
2023-02-03T11:29:58.618Z,98754.63
2023-02-03T11:32:32.499Z,98746.72
2023-02-03T11:34:58.979Z,98755.31
2023-02-03T11:37:28.084Z,98748.41
2023-02-03T11:39:54.493Z,98747.97
2023-02-03T11:42:20.930Z,98756.69
2023-02-03T11:44:47.406Z,98748.25
2023-02-03T11:47:14.841Z,98741.44
2023-02-03T11:49:46.577Z,98742.28
2023-02-03T11:52:15.181Z,98743.56
2023-02-03T11:54:41.655Z,98743.97
2023-02-03T11:57:08.511Z,98733.47
2023-02-03T11:59:34.884Z,98727.59
2023-02-03T12:02:01.352Z,98731.66
2023-02-03T12:04:31.565Z,98734.25
2023-02-03T12:06:58.023Z,98738.84
2023-02-03T12:09:24.402Z,98735.47
2023-02-03T12:11:50.803Z,98729.34
2023-02-03T12:14:17.181Z,98724.41
2023-02-03T12:16:43.690Z,98712.72
2023-02-03T12:19:10.211Z,98712.72
2023-02-03T12:21:36.659Z,98713.06
2023-02-03T12:24:03.054Z,98707.56
2023-02-03T12:26:29.454Z,98705.28
2023-02-03T12:28:55.840Z,98707.88
2023-02-03T12:31:22.335Z,98709.81
2023-02-03T12:33:48.860Z,98703.38
2023-02-03T12:36:15.314Z,98709.66
2023-02-03T12:38:41.708Z,98699.16
2023-02-03T12:41:08.142Z,98694.34
2023-02-03T12:43:34.614Z,98697.03
2023-02-03T12:46:08.788Z,98687.84
2023-02-03T12:48:35.277Z,98684.31
2023-02-03T12:51:01.772Z,98686.84
2023-02-03T12:53:29.324Z,98685.00
2023-02-03T12:55:56.270Z,98675.84
2023-02-03T12:58:23.958Z,98682.94
2023-02-03T13:00:50.543Z,98690.84
2023-02-03T13:05:57.330Z,98686.53
2023-02-03T13:08:23.783Z,98669.34
2023-02-03T13:10:50.219Z,98655.78
2023-02-03T13:13:16.691Z,98664.13
2023-02-03T13:15:43.050Z,98660.44
2023-02-03T13:18:09.513Z,98661.31
2023-02-03T13:20:36.213Z,98662.22
2023-02-03T13:23:02.720Z,98644.84
2023-02-03T13:25:29.244Z,98631.84
2023-02-03T13:27:55.815Z,98625.53
2023-02-03T13:30:25.105Z,98627.41
2023-02-03T13:32:52.038Z,98628.22
2023-02-03T13:35:21.701Z,98632.03
2023-02-03T13:37:54.283Z,98632.66
2023-02-03T13:40:20.746Z,98633.81
2023-02-03T13:42:48.397Z,98629.28
2023-02-03T13:45:14.813Z,98632.13
2023-02-03T13:47:41.280Z,98620.56
2023-02-03T13:50:12.695Z,98632.13
2023-02-03T13:52:41.747Z,98641.94
2023-02-03T13:55:08.533Z,98646.28
2023-02-03T13:57:35.051Z,98663.13
2023-02-03T14:00:01.633Z,98647.59
2023-02-03T14:02:28.038Z,98646.66
2023-02-03T14:04:54.699Z,98639.31
2023-02-03T14:07:24.222Z,98629.81
2023-02-03T14:09:50.691Z,98629.03
2023-02-03T14:12:17.127Z,98619.38
2023-02-03T14:14:43.625Z,98612.38
2023-02-03T14:17:10.440Z,98616.91
2023-02-03T14:19:37.069Z,98619.44
2023-02-03T14:22:14.666Z,98620.75
2023-02-03T14:24:41.157Z,98640.19
2023-02-03T14:27:09.679Z,98642.81
2023-02-03T14:29:36.040Z,98642.91
2023-02-03T14:32:02.590Z,98642.91
2023-02-03T14:34:29.061Z,98646.31
2023-02-03T14:36:55.580Z,98654.59
2023-02-03T14:39:22.065Z,98656.47
2023-02-03T14:41:48.550Z,98658.00
2023-02-03T14:44:15.026Z,98652.00
2023-02-03T14:46:41.580Z,98648.50
2023-02-03T14:49:08.156Z,98652.53
2023-02-03T14:51:34.646Z,98646.69
2023-02-03T14:54:01.151Z,98639.81
2023-02-03T14:56:27.646Z,98631.66
2023-02-03T14:58:54.098Z,98626.69
2023-02-03T15:01:23.558Z,98618.41
2023-02-03T15:03:50.032Z,98605.28
2023-02-03T15:06:16.546Z,98603.63
2023-02-03T15:08:43.009Z,98602.59
2023-02-03T15:11:13.480Z,98596.63
2023-02-03T15:13:42.035Z,98590.75
2023-02-03T15:16:08.531Z,98591.59
2023-02-03T15:18:35.032Z,98593.94
2023-02-03T15:21:01.423Z,98591.97
2023-02-03T15:23:27.827Z,98586.59
2023-02-03T15:25:54.293Z,98580.75
2023-02-03T15:28:20.744Z,98582.94
2023-02-03T15:30:48.320Z,98582.63
2023-02-03T15:33:14.859Z,98578.41
2023-02-03T15:35:41.295Z,98578.25
2023-02-03T15:38:07.752Z,98585.97
2023-02-03T15:40:34.228Z,98575.41
2023-02-03T15:43:08.594Z,98569.88
2023-02-03T15:45:35.018Z,98567.03
2023-02-03T15:48:01.509Z,98567.72
2023-02-03T15:50:28.419Z,98558.63
2023-02-03T15:52:56.140Z,98571.72
2023-02-03T15:58:13.409Z,98563.22
2023-02-03T16:00:42.808Z,98560.22
2023-02-03T16:03:09.350Z,98570.78
2023-02-03T16:05:36.036Z,98578.28
2023-02-03T16:08:03.649Z,98568.38
2023-02-03T16:10:30.237Z,98582.13
2023-02-03T16:12:56.755Z,98592.16
2023-02-03T16:15:23.205Z,98587.28
2023-02-03T16:17:49.685Z,98587.09
2023-02-03T16:20:16.152Z,98594.47
2023-02-03T16:22:42.618Z,98605.34
2023-02-03T16:25:09.075Z,98598.59
2023-02-03T16:27:35.589Z,98609.16
2023-02-03T16:30:02.024Z,98607.44
2023-02-03T16:32:28.518Z,98608.56
2023-02-03T16:34:54.936Z,98614.53
2023-02-03T16:37:21.455Z,98613.50
2023-02-03T16:39:47.978Z,98607.47
2023-02-03T16:42:14.462Z,98614.63
2023-02-03T16:44:40.953Z,98616.34
2023-02-03T16:47:07.429Z,98625.19
2023-02-03T16:49:33.872Z,98632.56
2023-02-03T16:52:00.319Z,98635.09
2023-02-03T16:54:26.732Z,98635.13
2023-02-03T16:57:04.820Z,98629.47
2023-02-03T16:59:32.377Z,98633.53
2023-02-03T17:01:58.883Z,98636.72
2023-02-03T17:04:25.378Z,98640.50
2023-02-03T17:06:51.801Z,98649.88
2023-02-03T17:09:18.332Z,98660.09
2023-02-03T17:11:45.850Z,98650.22
2023-02-03T17:14:12.350Z,98655.41
2023-02-03T17:19:23.959Z,98657.78
2023-02-03T17:22:00.779Z,98665.81
2023-02-03T17:24:27.232Z,98662.63
2023-02-03T17:26:53.728Z,98672.50
2023-02-03T17:29:20.248Z,98670.81
2023-02-03T17:31:46.769Z,98669.59
2023-02-03T17:34:15.918Z,98682.78
2023-02-03T17:36:42.404Z,98675.59
2023-02-03T17:55:33.873Z,98679.09
2023-02-03T17:58:00.535Z,98676.28
2023-02-03T18:00:27.247Z,98681.78
2023-02-03T18:02:53.801Z,98682.63
2023-02-03T18:05:21.618Z,98689.00
2023-02-03T18:10:22.066Z,98691.78
2023-02-03T18:12:54.637Z,98690.13
2023-02-03T18:15:21.094Z,98680.94
2023-02-03T18:17:52.457Z,98677.88
2023-02-03T18:20:18.960Z,98676.03
2023-02-03T18:22:45.531Z,98672.53
2023-02-03T18:25:11.985Z,98675.38
2023-02-03T18:27:38.568Z,98681.56
2023-02-03T18:30:05.148Z,98678.19
2023-02-03T18:32:31.730Z,98676.50
2023-02-03T18:35:00.374Z,98671.47
2023-02-03T18:37:34.495Z,98678.94
2023-02-03T18:40:00.967Z,98701.47
2023-02-03T18:42:27.532Z,98696.28
2023-02-03T18:44:54.912Z,98696.78
2023-02-03T18:47:21.361Z,98685.91
2023-02-03T18:49:47.916Z,98678.03
2023-02-03T18:52:19.771Z,98671.03
2023-02-03T18:54:46.229Z,98663.00
2023-02-03T18:57:12.638Z,98667.34
2023-02-03T18:59:39.190Z,98673.41
2023-02-03T19:02:05.609Z,98676.22
2023-02-03T19:04:32.089Z,98674.84
2023-02-03T19:06:58.685Z,98668.78
2023-02-03T19:09:25.136Z,98669.81
2023-02-03T19:11:55.280Z,98673.31
2023-02-03T19:14:24.986Z,98668.94
2023-02-03T19:16:51.413Z,98663.44
2023-02-03T19:19:17.862Z,98659.94
2023-02-03T19:21:44.356Z,98664.56
2023-02-03T19:24:10.835Z,98676.97
2023-02-03T19:29:23.313Z,98668.84
2023-02-03T19:31:49.914Z,98676.88
2023-02-03T19:34:16.409Z,98675.91
2023-02-03T19:36:42.921Z,98679.44
2023-02-03T19:39:09.346Z,98678.06
2023-02-03T19:41:35.794Z,98665.50
2023-02-03T19:44:02.224Z,98657.47
2023-02-03T19:46:28.762Z,98670.56
2023-02-03T19:48:56.325Z,98659.16
2023-02-03T19:51:22.784Z,98651.28
2023-02-03T19:53:49.274Z,98665.50
2023-02-03T19:56:15.718Z,98665.50
2023-02-03T19:58:42.177Z,98660.81
2023-02-03T20:01:08.665Z,98667.19
2023-02-03T20:03:35.133Z,98660.81
2023-02-03T20:06:01.650Z,98670.03
2023-02-03T20:08:28.148Z,98670.19
2023-02-03T20:10:54.705Z,98678.22
2023-02-03T20:13:21.162Z,98670.63
2023-02-03T20:15:47.813Z,98675.31
2023-02-03T20:18:14.495Z,98677.97
2023-02-03T20:20:40.970Z,98679.78
2023-02-03T20:23:08.730Z,98676.44
2023-02-03T20:25:35.228Z,98668.56
2023-02-03T20:28:01.784Z,98673.38
2023-02-03T20:30:28.609Z,98675.66
2023-02-03T20:32:55.757Z,98684.69
2023-02-03T20:35:22.271Z,98672.84
2023-02-03T20:37:51.005Z,98677.22
2023-02-03T20:40:17.523Z,98678.03
2023-02-03T20:42:44.988Z,98682.41
2023-02-03T20:45:11.438Z,98673.38
2023-02-03T20:47:38.047Z,98674.38
2023-02-03T20:50:05.845Z,98673.50
2023-02-03T20:52:32.259Z,98668.31
2023-02-03T20:54:58.728Z,98678.03
2023-02-03T20:57:25.218Z,98677.38
2023-02-03T20:59:51.722Z,98681.03
2023-02-03T21:02:18.293Z,98677.78
2023-02-03T21:04:44.906Z,98685.00
2023-02-03T21:07:15.995Z,98687.81
2023-02-03T21:09:42.738Z,98682.94
2023-02-03T21:12:09.268Z,98683.91
2023-02-03T21:14:35.896Z,98690.09
2023-02-03T21:17:04.671Z,98690.09
2023-02-03T21:19:31.219Z,98682.06
2023-02-03T21:21:57.670Z,98686.84
2023-02-03T21:24:24.144Z,98698.41
2023-02-03T21:26:50.677Z,98687.84
2023-02-03T21:29:18.518Z,98689.53
2023-02-03T21:31:45.043Z,98694.63
2023-02-03T21:34:11.670Z,98697.28
2023-02-03T21:36:39.308Z,98688.66
2023-02-03T21:39:07.065Z,98690.53
2023-02-03T21:41:33.551Z,98688.16
2023-02-03T21:44:00.045Z,98684.63
2023-02-03T21:46:28.578Z,98684.63
2023-02-03T21:48:54.994Z,98691.13
2023-02-03T21:51:21.478Z,98695.69
2023-02-03T21:53:47.906Z,98704.91
2023-02-03T21:56:14.355Z,98679.69
2023-02-03T21:58:40.802Z,98684.13
2023-02-03T22:01:07.418Z,98690.03
2023-02-03T22:03:34.006Z,98692.88
2023-02-03T22:06:00.445Z,98689.63
2023-02-03T22:08:29.673Z,98697.41
2023-02-03T22:10:56.108Z,98695.19
2023-02-03T22:13:22.545Z,98694.88
2023-02-03T22:15:49.309Z,98691.91
2023-02-03T22:18:15.908Z,98695.97
2023-02-03T22:20:42.440Z,98685.13
2023-02-03T22:23:08.908Z,98689.47
2023-02-03T22:25:35.295Z,98689.47
2023-02-03T22:28:02.755Z,98687.78
2023-02-03T22:30:31.157Z,98686.28
2023-02-03T22:33:00.336Z,98696.13
2023-02-03T22:35:27.106Z,98689.22
2023-02-03T22:37:56.957Z,98691.41
2023-02-03T22:40:33.511Z,98695.63
2023-02-03T22:43:06.524Z,98687.75
2023-02-03T22:45:55.640Z,98694.25
2023-02-03T22:48:19.996Z,98694.44
2023-02-03T22:50:46.504Z,98701.84
2023-02-03T22:53:17.346Z,98696.63
2023-02-03T22:55:43.798Z,98697.19
2023-02-03T22:58:10.354Z,98699.13
2023-02-03T23:00:36.861Z,98701.81
2023-02-03T23:03:03.405Z,98696.91
2023-02-03T23:05:29.994Z,98693.56
2023-02-03T23:07:56.571Z,98697.38
2023-02-03T23:10:23.202Z,98695.00
2023-02-03T23:12:49.712Z,98701.47
2023-02-03T23:15:18.216Z,98713.97
2023-02-03T23:17:44.651Z,98712.16
2023-02-03T23:20:11.099Z,98721.47
2023-02-03T23:22:37.618Z,98716.13
2023-02-03T23:25:04.120Z,98724.13
2023-02-03T23:27:30.590Z,98725.13
2023-02-03T23:29:57.194Z,98724.00
2023-02-03T23:32:23.793Z,98716.78
2023-02-03T23:34:50.275Z,98718.06
2023-02-03T23:37:16.702Z,98716.41
2023-02-03T23:39:43.117Z,98712.63
2023-02-03T23:42:09.651Z,98711.50
2023-02-03T23:44:36.135Z,98715.00
2023-02-03T23:47:02.565Z,98719.22
2023-02-03T23:49:29.097Z,98721.91
2023-02-03T23:51:55.557Z,98721.91
2023-02-03T23:54:22.090Z,98720.22
2023-02-03T23:56:48.514Z,98735.56
2023-02-03T23:59:14.948Z,98735.84
